createdAt,value
2019-05-20T00:01:14.599Z,4.03
2019-05-20T00:03:44.934Z,5.33
2019-05-20T00:06:15.293Z,4.13
2019-05-20T00:08:45.213Z,4.70
2019-05-20T00:11:15.530Z,4.37
2019-05-20T00:13:45.808Z,3.43
2019-05-20T00:16:15.509Z,3.00
2019-05-20T00:18:45.598Z,4.23
2019-05-20T00:21:15.257Z,4.17
2019-05-20T00:23:44.925Z,5.20
2019-05-20T00:26:14.647Z,5.33
2019-05-20T00:28:44.317Z,2.80
2019-05-20T00:31:14.154Z,3.40
2019-05-20T00:33:43.998Z,3.27
2019-05-20T00:36:13.651Z,4.73
2019-05-20T00:38:45.270Z,4.00
2019-05-20T00:41:14.946Z,4.63
2019-05-20T00:43:44.767Z,3.53
2019-05-20T00:46:14.591Z,4.43
2019-05-20T00:48:44.326Z,4.07
2019-05-20T00:51:13.982Z,3.73
2019-05-20T00:53:43.793Z,2.97
2019-05-20T00:56:13.573Z,3.60
2019-05-20T00:58:43.377Z,4.00
2019-05-20T01:01:13.177Z,2.77
2019-05-20T01:03:42.911Z,3.67
2019-05-20T01:06:12.571Z,1.63
2019-05-20T01:08:42.302Z,4.47
2019-05-20T01:11:12.066Z,1.83
2019-05-20T01:13:42.314Z,2.33
2019-05-20T01:16:12.111Z,2.50
2019-05-20T01:18:41.835Z,2.73
2019-05-20T01:21:11.904Z,3.13
2019-05-20T01:23:42.176Z,3.33
2019-05-20T01:26:12.231Z,3.03
2019-05-20T01:28:42.433Z,3.40
2019-05-20T01:31:12.959Z,2.90
2019-05-20T01:33:43.214Z,3.73
2019-05-20T01:36:13.653Z,3.27
2019-05-20T01:38:43.510Z,3.63
2019-05-20T01:41:13.831Z,3.33
2019-05-20T01:43:43.510Z,6.93
2019-05-20T01:46:13.579Z,2.57
2019-05-20T01:48:44.443Z,2.03
2019-05-20T01:51:14.235Z,2.27
2019-05-20T01:53:44.254Z,2.40
2019-05-20T01:56:14.020Z,1.70
2019-05-20T01:58:44.376Z,2.10
2019-05-20T02:01:15.032Z,2.67
2019-05-20T02:03:45.244Z,3.87
2019-05-20T02:06:15.051Z,4.00
2019-05-20T02:09:05.528Z,2.30
2019-05-20T02:11:35.490Z,2.80
2019-05-20T02:14:09.143Z,1.80
2019-05-20T02:16:39.132Z,1.70
2019-05-20T02:19:09.386Z,2.20
2019-05-20T02:21:39.432Z,2.40
2019-05-20T02:24:09.488Z,1.93
2019-05-20T02:26:39.869Z,2.40
2019-05-20T02:29:09.926Z,2.97
2019-05-20T02:31:42.960Z,2.40
2019-05-20T02:34:12.705Z,2.13
2019-05-20T02:36:42.462Z,3.63
2019-05-20T02:39:12.539Z,2.30
2019-05-20T02:41:43.903Z,4.37
2019-05-20T02:44:14.355Z,2.07
2019-05-20T02:47:03.672Z,3.13
2019-05-20T02:49:33.683Z,2.80
2019-05-20T02:52:03.738Z,2.23
2019-05-20T02:54:33.821Z,2.27
2019-05-20T02:57:03.808Z,2.73
2019-05-20T02:59:33.628Z,1.83
2019-05-20T03:02:03.439Z,2.80
2019-05-20T03:04:33.323Z,2.40
2019-05-20T03:07:03.066Z,2.73
2019-05-20T03:09:33.154Z,3.40
2019-05-20T03:12:03.578Z,3.07
2019-05-20T03:14:33.589Z,2.77
2019-05-20T03:17:03.596Z,3.53
2019-05-20T03:19:33.814Z,2.47
2019-05-20T03:22:03.626Z,3.43
2019-05-20T03:24:33.743Z,4.27
2019-05-20T03:27:03.844Z,4.73
2019-05-20T03:29:33.835Z,5.53
2019-05-20T03:32:03.668Z,2.83
2019-05-20T03:34:58.713Z,4.47
2019-05-20T03:37:05.506Z,4.40
2019-05-20T03:39:35.594Z,8.33
2019-05-20T03:42:05.414Z,6.70
2019-05-20T03:44:54.606Z,6.03
2019-05-20T03:47:24.621Z,6.07
2019-05-20T03:49:54.940Z,6.50
2019-05-20T03:52:25.007Z,6.60
2019-05-20T03:54:55.264Z,8.57
2019-05-20T03:57:25.009Z,8.43
2019-05-20T03:59:54.927Z,7.30
2019-05-20T04:02:25.282Z,8.80
2019-05-20T04:05:02.429Z,7.73
2019-05-20T04:07:27.064Z,14.93
2019-05-20T04:09:57.148Z,6.70
2019-05-20T04:12:26.912Z,6.60
2019-05-20T04:14:56.670Z,7.60
2019-05-20T04:17:26.416Z,8.57
2019-05-20T04:19:56.227Z,7.03
2019-05-20T04:22:26.484Z,8.80
2019-05-20T04:24:56.281Z,6.40
2019-05-20T04:27:26.822Z,7.33
2019-05-20T04:29:56.744Z,6.43
2019-05-20T04:32:27.098Z,6.23
2019-05-20T04:34:57.027Z,5.70
2019-05-20T04:37:26.709Z,4.87
2019-05-20T04:39:56.511Z,8.77
2019-05-20T04:42:26.856Z,7.47
2019-05-20T04:44:56.655Z,6.23
2019-05-20T04:47:26.724Z,5.77
2019-05-20T04:49:56.816Z,5.87
2019-05-20T04:52:26.654Z,6.93
2019-05-20T04:54:56.735Z,4.27
2019-05-20T04:57:26.812Z,5.40
2019-05-20T04:59:56.564Z,4.30
2019-05-20T05:02:27.428Z,4.50
2019-05-20T05:04:57.089Z,4.93
2019-05-20T05:07:26.895Z,5.10
2019-05-20T05:09:56.998Z,5.60
2019-05-20T05:12:27.077Z,9.93
2019-05-20T05:14:57.159Z,6.23
2019-05-20T05:17:26.965Z,6.37
2019-05-20T05:20:18.449Z,6.20
2019-05-20T05:22:47.311Z,5.40
2019-05-20T05:25:17.206Z,6.93
2019-05-20T05:27:47.018Z,7.70
2019-05-20T05:30:16.814Z,6.53
2019-05-20T05:32:46.576Z,5.90
2019-05-20T05:35:17.302Z,4.80
2019-05-20T05:37:47.431Z,5.70
2019-05-20T05:40:18.170Z,5.50
2019-05-20T05:42:48.309Z,6.03
2019-05-20T05:45:23.237Z,5.30
2019-05-20T05:47:53.872Z,5.50
2019-05-20T05:50:23.900Z,6.30
2019-05-20T05:52:54.179Z,6.50
2019-05-20T05:55:24.476Z,3.73
2019-05-20T05:57:54.548Z,5.67
2019-05-20T06:00:24.721Z,3.43
2019-05-20T06:02:54.820Z,3.83
2019-05-20T06:05:25.929Z,4.37
2019-05-20T06:07:56.296Z,3.97
2019-05-20T06:10:27.151Z,3.50
2019-05-20T06:12:57.444Z,4.33
2019-05-20T06:15:27.506Z,4.17
2019-05-20T06:18:02.516Z,5.10
2019-05-20T06:20:32.440Z,4.60
2019-05-20T06:23:02.302Z,4.07
2019-05-20T06:25:32.151Z,4.17
2019-05-20T06:28:02.004Z,4.67
2019-05-20T06:30:43.744Z,6.00
2019-05-20T06:33:13.763Z,6.30
2019-05-20T06:35:43.659Z,7.00
2019-05-20T06:38:35.791Z,8.50
2019-05-20T06:41:06.761Z,9.53
2019-05-20T06:43:36.571Z,6.57
2019-05-20T06:46:07.170Z,6.67
2019-05-20T06:48:37.918Z,7.03
2019-05-20T06:51:08.062Z,6.90
2019-05-20T06:53:38.415Z,6.40
2019-05-20T06:56:08.797Z,5.80
2019-05-20T06:58:39.364Z,6.27
2019-05-20T07:01:09.171Z,7.33
2019-05-20T07:03:39.026Z,7.33
2019-05-20T07:06:08.831Z,8.10
2019-05-20T07:08:38.604Z,9.57
2019-05-20T07:11:08.374Z,9.47
2019-05-20T07:13:38.134Z,12.97
2019-05-20T07:16:07.884Z,8.83
2019-05-20T07:18:37.661Z,7.20
2019-05-20T07:21:07.703Z,7.93
2019-05-20T07:23:37.726Z,9.33
2019-05-20T07:26:08.225Z,8.70
2019-05-20T07:28:37.993Z,8.73
2019-05-20T07:31:08.771Z,7.57
2019-05-20T07:33:39.035Z,8.23
2019-05-20T07:36:10.157Z,9.20
2019-05-20T07:38:40.655Z,9.83
2019-05-20T07:41:10.742Z,11.83
2019-05-20T07:43:41.423Z,14.50
2019-05-20T07:46:12.474Z,10.70
2019-05-20T07:48:42.364Z,12.77
2019-05-20T07:51:12.838Z,11.00
2019-05-20T07:53:43.415Z,12.07
2019-05-20T07:56:16.794Z,10.90
2019-05-20T07:58:50.676Z,10.90
2019-05-20T08:01:20.507Z,10.60
2019-05-20T08:03:50.911Z,10.47
2019-05-20T08:06:23.430Z,7.43
2019-05-20T08:08:53.159Z,8.93
2019-05-20T08:11:23.359Z,8.10
2019-05-20T08:13:53.926Z,8.70
2019-05-20T08:16:24.091Z,9.20
2019-05-20T08:18:54.164Z,10.30
2019-05-20T08:21:24.174Z,9.10
2019-05-20T08:23:54.744Z,11.27
2019-05-20T08:26:25.170Z,10.00
2019-05-20T08:28:55.388Z,10.33
2019-05-20T08:31:26.092Z,10.43
2019-05-20T08:33:56.409Z,10.37
2019-05-20T08:36:26.768Z,9.13
2019-05-20T08:38:56.543Z,10.17
2019-05-20T08:41:26.624Z,9.70
2019-05-20T08:43:56.775Z,9.40
2019-05-20T08:46:26.713Z,11.60
2019-05-20T08:48:56.879Z,10.50
2019-05-20T08:51:27.598Z,9.53
2019-05-20T08:53:57.665Z,10.87
2019-05-20T08:56:27.816Z,9.20
2019-05-20T08:58:57.996Z,10.27
2019-05-20T09:01:33.680Z,9.07
2019-05-20T09:04:04.135Z,11.33
2019-05-20T09:06:34.723Z,11.53
2019-05-20T09:09:06.251Z,12.27
2019-05-20T09:11:36.150Z,10.93
2019-05-20T09:14:05.958Z,11.03
2019-05-20T09:16:36.801Z,12.93
2019-05-20T09:19:06.617Z,11.83
2019-05-20T09:21:36.494Z,9.40
2019-05-20T09:24:06.244Z,13.07
2019-05-20T09:26:36.044Z,12.17
2019-05-20T09:29:06.111Z,9.93
2019-05-20T09:31:37.073Z,13.17
2019-05-20T09:34:07.483Z,11.17
2019-05-20T09:36:38.341Z,9.30
2019-05-20T09:39:08.774Z,8.90
2019-05-20T09:41:39.039Z,11.83
2019-05-20T09:44:08.852Z,10.30
2019-05-20T09:46:38.789Z,10.53
2019-05-20T09:49:08.740Z,10.30
2019-05-20T09:51:38.609Z,10.10
2019-05-20T09:54:08.747Z,8.43
2019-05-20T09:56:38.602Z,8.20
2019-05-20T09:59:08.330Z,9.30
2019-05-20T10:01:40.221Z,8.93
2019-05-20T10:04:09.731Z,9.13
2019-05-20T10:06:39.498Z,13.57
2019-05-20T10:09:09.378Z,9.27
2019-05-20T10:11:39.126Z,9.50
2019-05-20T10:14:08.887Z,10.20
2019-05-20T10:16:38.713Z,11.13
2019-05-20T10:19:08.519Z,7.77
2019-05-20T10:21:38.396Z,11.43
2019-05-20T10:24:09.917Z,11.37
2019-05-20T10:26:39.794Z,8.87
2019-05-20T10:29:09.583Z,8.97
2019-05-20T10:31:39.510Z,10.27
2019-05-20T10:34:09.576Z,9.97
2019-05-20T10:36:39.662Z,11.63
2019-05-20T10:39:09.748Z,11.70
2019-05-20T10:41:39.928Z,10.53
2019-05-20T10:44:10.079Z,9.57
2019-05-20T10:46:40.517Z,10.83
2019-05-20T10:49:10.918Z,10.10
2019-05-20T10:51:40.740Z,10.17
2019-05-20T10:54:10.855Z,11.20
2019-05-20T10:56:41.222Z,10.33
2019-05-20T10:59:12.477Z,12.13
2019-05-20T11:01:42.547Z,10.90
2019-05-20T11:04:13.378Z,13.10
2019-05-20T11:06:43.906Z,12.13
2019-05-20T11:09:14.606Z,12.80
2019-05-20T11:11:44.871Z,14.10
2019-05-20T11:14:14.988Z,12.67
2019-05-20T11:16:45.341Z,16.97
2019-05-20T11:19:17.274Z,13.77
2019-05-20T11:21:47.103Z,15.13
2019-05-20T11:24:16.935Z,14.57
2019-05-20T11:27:00.112Z,14.70
2019-05-20T11:29:39.869Z,16.57
2019-05-20T11:32:09.740Z,12.73
2019-05-20T11:34:39.651Z,17.93
2019-05-20T11:37:09.514Z,16.33
2019-05-20T11:39:39.622Z,16.00
2019-05-20T11:42:09.443Z,15.20
2019-05-20T11:44:39.785Z,14.37
2019-05-20T11:47:09.855Z,16.87
2019-05-20T11:49:40.415Z,15.83
2019-05-20T11:52:10.500Z,13.47
2019-05-20T11:54:40.911Z,14.90
2019-05-20T11:57:10.753Z,19.00
2019-05-20T11:59:41.448Z,16.97
2019-05-20T12:02:11.453Z,16.37
2019-05-20T12:04:41.456Z,16.83
2019-05-20T12:07:11.572Z,15.37
2019-05-20T12:09:49.752Z,16.00
2019-05-20T12:12:13.207Z,15.03
2019-05-20T12:14:43.576Z,17.67
2019-05-20T12:17:32.713Z,16.70
2019-05-20T12:20:04.426Z,14.37
2019-05-20T12:22:36.255Z,15.70
2019-05-20T12:25:06.966Z,15.53
2019-05-20T12:27:37.559Z,13.67
2019-05-20T12:30:09.428Z,14.77
2019-05-20T12:32:40.257Z,15.10
2019-05-20T12:35:10.458Z,16.87
2019-05-20T12:37:40.812Z,14.53
2019-05-20T12:40:12.964Z,15.33
2019-05-20T12:42:43.568Z,16.17
2019-05-20T12:45:13.991Z,17.57
2019-05-20T12:47:44.240Z,16.90
2019-05-20T12:50:15.051Z,13.17
2019-05-20T12:52:45.272Z,14.10
2019-05-20T12:55:15.839Z,16.77
2019-05-20T12:57:49.630Z,17.50
2019-05-20T13:00:20.826Z,15.60
2019-05-20T13:02:52.227Z,20.07
2019-05-20T13:05:22.271Z,18.23
2019-05-20T13:07:52.086Z,16.33
2019-05-20T13:10:41.238Z,18.00
2019-05-20T13:13:11.812Z,17.83
2019-05-20T13:15:42.052Z,18.50
2019-05-20T13:18:11.958Z,16.33
2019-05-20T13:20:43.971Z,14.87
2019-05-20T13:23:15.484Z,18.53
2019-05-20T13:25:45.422Z,16.10
2019-05-20T13:28:22.490Z,15.97
2019-05-20T13:30:52.723Z,15.80
2019-05-20T13:33:23.549Z,17.13
2019-05-20T13:35:56.113Z,15.53
2019-05-20T13:38:25.947Z,17.27
2019-05-20T13:43:49.146Z,17.53
2019-05-20T13:46:19.631Z,20.30
2019-05-20T13:48:52.433Z,19.23
2019-05-20T13:51:22.321Z,20.20
2019-05-20T13:53:52.959Z,19.47
2019-05-20T13:56:22.906Z,27.53
2019-05-20T13:58:53.847Z,25.27
2019-05-20T14:01:25.720Z,25.30
2019-05-20T14:03:57.215Z,26.20
2019-05-20T14:06:27.831Z,34.90
2019-05-20T14:08:58.152Z,29.60
2019-05-20T14:11:34.764Z,32.43
2019-05-20T14:14:03.494Z,30.83
2019-05-20T14:16:34.148Z,34.50
2019-05-20T14:19:04.414Z,37.53
2019-05-20T14:21:36.461Z,32.63
2019-05-20T14:24:06.928Z,29.40
2019-05-20T14:26:39.700Z,39.50
2019-05-20T14:29:11.981Z,35.03
2019-05-20T14:31:42.507Z,40.70
2019-05-20T14:34:13.359Z,41.33
2019-05-20T14:36:44.233Z,34.70
2019-05-20T14:39:17.746Z,35.43
2019-05-20T14:41:48.680Z,37.67
2019-05-20T14:44:25.716Z,48.23
2019-05-20T14:46:55.980Z,46.40
2019-05-20T14:49:26.792Z,47.40
2019-05-20T14:52:15.989Z,49.10
2019-05-20T14:54:47.571Z,49.33
2019-05-20T14:57:18.526Z,53.07
2019-05-20T14:59:49.403Z,50.97
2019-05-20T15:02:19.764Z,55.67
2019-05-20T15:04:50.160Z,57.00
2019-05-20T15:07:29.892Z,58.23
2019-05-20T15:09:56.650Z,57.10
2019-05-20T15:12:33.908Z,52.87
2019-05-20T15:15:09.837Z,60.27
2019-05-20T15:17:39.669Z,51.20
2019-05-20T15:20:10.412Z,63.50
2019-05-20T15:22:40.489Z,60.50
2019-05-20T15:25:10.358Z,54.40
2019-05-20T15:27:41.572Z,45.53
2019-05-20T15:30:12.313Z,60.83
2019-05-20T15:32:42.211Z,59.53
2019-05-20T15:35:12.932Z,35.37
2019-05-20T15:37:42.709Z,43.67
2019-05-20T15:40:13.040Z,40.33
2019-05-20T15:42:42.999Z,38.00
2019-05-20T15:45:13.340Z,37.13
2019-05-20T15:47:43.115Z,42.63
2019-05-20T15:50:13.160Z,38.20
2019-05-20T15:52:43.173Z,48.83
2019-05-20T15:55:13.175Z,54.43
2019-05-20T15:57:43.291Z,55.77
2019-05-20T16:00:16.031Z,49.33
2019-05-20T16:02:45.926Z,45.27
2019-05-20T16:05:16.225Z,34.33
2019-05-20T16:07:47.000Z,33.90
2019-05-20T16:10:17.203Z,31.57
2019-05-20T16:12:47.899Z,36.17
2019-05-20T16:15:17.716Z,36.80
2019-05-20T16:17:48.801Z,35.33
2019-05-20T16:20:19.684Z,37.73
2019-05-20T16:22:50.034Z,38.43
2019-05-20T16:25:20.335Z,35.63
2019-05-20T16:27:50.184Z,42.73
2019-05-20T16:30:21.018Z,44.87
2019-05-20T16:32:51.400Z,40.63
2019-05-20T16:35:21.666Z,44.93
2019-05-20T16:37:51.889Z,45.60
2019-05-20T16:40:21.899Z,45.70
2019-05-20T16:42:52.221Z,47.10
2019-05-20T16:45:22.086Z,47.20
2019-05-20T16:47:52.507Z,50.13
2019-05-20T16:50:22.311Z,53.17
2019-05-20T16:52:52.186Z,55.97
2019-05-20T16:55:22.054Z,52.93
2019-05-20T16:57:51.857Z,54.33
2019-05-20T17:00:31.194Z,56.20
2019-05-20T17:02:53.580Z,49.73
2019-05-20T17:05:23.425Z,51.57
2019-05-20T17:07:53.216Z,42.87
2019-05-20T17:10:23.036Z,58.50
2019-05-20T17:12:52.723Z,54.97
2019-05-20T17:15:22.548Z,44.37
2019-05-20T17:17:52.667Z,51.03
2019-05-20T17:20:22.495Z,44.37
2019-05-20T17:22:52.357Z,56.20
2019-05-20T17:25:27.146Z,46.07
2019-05-20T17:27:56.951Z,50.70
2019-05-20T17:30:26.797Z,50.07
2019-05-20T17:32:56.667Z,48.40
2019-05-20T17:35:26.678Z,52.27
2019-05-20T17:37:56.507Z,44.80
2019-05-20T17:40:26.371Z,46.40
2019-05-20T17:42:56.858Z,47.77
2019-05-20T17:45:26.688Z,54.90
2019-05-20T17:47:56.523Z,45.33
2019-05-20T17:50:28.289Z,43.63
2019-05-20T17:52:58.443Z,49.40
2019-05-20T17:55:29.866Z,50.57
2019-05-20T17:58:00.143Z,52.33
2019-05-20T18:00:30.921Z,53.10
2019-05-20T18:03:03.665Z,45.80
2019-05-20T18:05:34.919Z,41.67
2019-05-20T18:08:04.963Z,42.60
2019-05-20T18:10:36.541Z,40.47
2019-05-20T18:13:07.298Z,43.77
2019-05-20T18:15:37.655Z,41.47
2019-05-20T18:18:07.578Z,42.43
2019-05-20T18:20:37.795Z,39.73
2019-05-20T18:23:08.116Z,41.40
2019-05-20T18:25:39.047Z,38.50
2019-05-20T18:28:17.025Z,37.73
2019-05-20T18:30:47.126Z,37.90
2019-05-20T18:33:36.014Z,39.20
2019-05-20T18:36:06.226Z,36.13
2019-05-20T18:38:36.529Z,34.97
2019-05-20T18:41:06.287Z,28.63
2019-05-20T18:43:55.182Z,30.27
2019-05-20T18:46:27.392Z,31.87
2019-05-20T18:48:57.600Z,30.77
2019-05-20T18:51:29.670Z,28.03
2019-05-20T18:53:59.765Z,38.83
2019-05-20T18:56:30.019Z,33.60
2019-05-20T18:59:00.502Z,35.13
2019-05-20T19:01:30.954Z,31.40
2019-05-20T19:04:01.760Z,30.13
2019-05-20T19:06:31.655Z,29.30
2019-05-20T19:09:01.503Z,32.27
2019-05-20T19:11:32.370Z,32.90
2019-05-20T19:14:02.210Z,28.57
2019-05-20T19:16:32.861Z,30.10
2019-05-20T19:19:05.895Z,30.13
2019-05-20T19:21:36.236Z,31.50
2019-05-20T19:24:06.866Z,32.20
2019-05-20T19:26:55.957Z,31.53
2019-05-20T19:29:26.346Z,28.20
2019-05-20T19:32:01.705Z,24.30
2019-05-20T19:34:28.219Z,26.03
2019-05-20T19:36:59.064Z,22.73
2019-05-20T19:39:29.222Z,26.00
2019-05-20T19:42:00.667Z,25.13
2019-05-20T19:44:32.325Z,29.60
2019-05-20T19:47:02.817Z,25.60
2019-05-20T19:49:33.396Z,21.87
2019-05-20T19:52:03.613Z,23.73
2019-05-20T19:54:33.691Z,20.87
2019-05-20T19:57:03.799Z,21.60
2019-05-20T19:59:33.873Z,21.30
2019-05-20T20:02:16.387Z,24.10
2019-05-20T20:04:35.735Z,21.50
2019-05-20T20:07:07.037Z,25.17
2019-05-20T20:09:49.925Z,23.10
2019-05-20T20:12:26.619Z,22.77
2019-05-20T20:14:59.823Z,23.97
2019-05-20T20:17:29.647Z,24.10
2019-05-20T20:19:59.465Z,30.40
2019-05-20T20:22:29.291Z,27.40
2019-05-20T20:24:59.244Z,28.80
2019-05-20T20:27:55.473Z,25.53
2019-05-20T20:30:30.597Z,28.00
2019-05-20T20:32:59.147Z,33.13
2019-05-20T20:35:37.597Z,30.70
2019-05-20T20:38:07.684Z,30.20
2019-05-20T20:40:37.924Z,29.73
2019-05-20T20:43:09.696Z,31.10
2019-05-20T20:45:40.278Z,32.90
2019-05-20T20:48:10.516Z,25.97
2019-05-20T20:50:40.522Z,26.00
2019-05-20T20:53:10.859Z,24.80
2019-05-20T20:55:41.043Z,28.10
2019-05-20T20:58:11.119Z,25.97
2019-05-20T21:00:41.422Z,25.93
2019-05-20T21:03:12.045Z,23.23
2019-05-20T21:05:42.289Z,29.40
2019-05-20T21:08:12.602Z,24.60
2019-05-20T21:10:42.688Z,28.63
2019-05-20T21:13:12.694Z,26.20
2019-05-20T21:15:45.021Z,26.30
2019-05-20T21:18:34.152Z,25.33
2019-05-20T21:21:22.109Z,26.83
2019-05-20T21:24:09.630Z,24.47
2019-05-20T21:26:39.654Z,22.67
2019-05-20T21:29:09.621Z,20.20
2019-05-20T21:32:01.620Z,20.70
2019-05-20T21:34:31.991Z,20.33
2019-05-20T21:37:02.971Z,21.80
2019-05-20T21:39:33.558Z,25.40
2019-05-20T21:42:04.313Z,23.27
2019-05-20T21:44:35.381Z,19.90
2019-05-20T21:47:05.515Z,25.67
2019-05-20T21:55:26.417Z,18.97
2019-05-20T21:58:04.943Z,23.73
2019-05-20T22:00:54.762Z,20.40
2019-05-20T22:03:25.431Z,20.97
2019-05-20T22:05:55.513Z,20.80
2019-05-20T22:08:28.840Z,24.20
2019-05-20T22:10:58.716Z,19.93
2019-05-20T22:13:28.938Z,22.30
2019-05-20T22:15:58.699Z,27.13
2019-05-20T22:18:31.877Z,25.00
2019-05-20T22:21:02.131Z,24.13
2019-05-20T22:23:43.182Z,24.20
2019-05-20T22:26:12.946Z,24.30
2019-05-20T22:28:44.209Z,23.57
2019-05-20T22:31:14.073Z,22.27
2019-05-20T22:33:44.169Z,26.50
2019-05-20T22:36:14.511Z,23.90
2019-05-20T22:38:44.267Z,25.00
2019-05-20T22:41:14.107Z,28.23
2019-05-20T22:43:43.916Z,25.50
2019-05-20T22:46:13.759Z,30.03
2019-05-20T22:48:43.514Z,25.83
2019-05-20T22:51:15.698Z,29.60
2019-05-20T22:53:45.433Z,25.50
2019-05-20T22:56:15.434Z,27.40
2019-05-20T22:58:45.189Z,26.27
2019-05-20T23:01:14.907Z,27.27
2019-05-20T23:03:55.569Z,27.43
2019-05-20T23:06:16.005Z,26.70
2019-05-20T23:08:45.846Z,31.37
2019-05-20T23:11:15.487Z,28.47
2019-05-20T23:13:45.157Z,33.70
2019-05-20T23:16:14.798Z,31.13
2019-05-20T23:19:03.722Z,28.40
2019-05-20T23:21:33.714Z,32.37
2019-05-20T23:24:03.449Z,24.80
2019-05-20T23:26:33.166Z,32.57
2019-05-20T23:29:02.838Z,28.07
2019-05-20T23:31:32.564Z,27.23
2019-05-20T23:34:12.339Z,22.33
2019-05-20T23:36:33.729Z,28.33
2019-05-20T23:39:06.080Z,23.30
2019-05-20T23:41:35.809Z,30.53
2019-05-20T23:44:05.897Z,27.27
2019-05-20T23:46:35.564Z,21.80
2019-05-20T23:49:05.380Z,27.27
2019-05-20T23:51:35.122Z,29.67
2019-05-20T23:54:04.882Z,26.37
2019-05-20T23:56:34.666Z,25.57
2019-05-20T23:59:04.509Z,24.57
